sensor_id;sensor_type;location;lat;lon;timestamp;P1;durP1;ratioP1;P2;durP2;ratioP2
49502;SDS011;35409;48.776;9.204;2022-12-18T00:01:22;114.97;;;40.72;;
49502;SDS011;35409;48.776;9.204;2022-12-18T00:03:52;114.30;;;41.75;;
49502;SDS011;35409;48.776;9.204;2022-12-18T00:06:19;119.90;;;43.50;;
49502;SDS011;35409;48.776;9.204;2022-12-18T00:08:47;106.60;;;40.22;;
49502;SDS011;35409;48.776;9.204;2022-12-18T00:11:16;100.20;;;39.35;;
49502;SDS011;35409;48.776;9.204;2022-12-18T00:13:44;104.50;;;39.67;;
49502;SDS011;35409;48.776;9.204;2022-12-18T00:16:11;122.00;;;43.25;;
49502;SDS011;35409;48.776;9.204;2022-12-18T00:18:39;127.13;;;43.40;;
49502;SDS011;35409;48.776;9.204;2022-12-18T00:21:06;106.50;;;40.10;;
49502;SDS011;35409;48.776;9.204;2022-12-18T00:23:34;116.43;;;40.80;;
49502;SDS011;35409;48.776;9.204;2022-12-18T00:26:01;105.68;;;41.45;;
49502;SDS011;35409;48.776;9.204;2022-12-18T00:28:28;114.85;;;43.42;;
49502;SDS011;35409;48.776;9.204;2022-12-18T00:31:01;103.47;;;39.70;;
49502;SDS011;35409;48.776;9.204;2022-12-18T00:33:31;97.72;;;38.53;;
49502;SDS011;35409;48.776;9.204;2022-12-18T00:36:00;114.85;;;41.97;;
49502;SDS011;35409;48.776;9.204;2022-12-18T00:38:30;109.55;;;39.30;;
49502;SDS011;35409;48.776;9.204;2022-12-18T00:40:56;118.13;;;43.10;;
49502;SDS011;35409;48.776;9.204;2022-12-18T00:43:22;108.80;;;41.58;;
49502;SDS011;35409;48.776;9.204;2022-12-18T00:45:48;117.40;;;42.13;;
49502;SDS011;35409;48.776;9.204;2022-12-18T00:48:13;103.97;;;39.45;;
49502;SDS011;35409;48.776;9.204;2022-12-18T00:50:39;109.20;;;38.35;;
49502;SDS011;35409;48.776;9.204;2022-12-18T00:53:05;110.45;;;39.50;;
49502;SDS011;35409;48.776;9.204;2022-12-18T00:55:30;115.70;;;41.72;;
49502;SDS011;35409;48.776;9.204;2022-12-18T00:57:56;116.80;;;40.28;;
49502;SDS011;35409;48.776;9.204;2022-12-18T01:00:21;115.28;;;41.78;;
49502;SDS011;35409;48.776;9.204;2022-12-18T01:02:47;112.85;;;41.88;;
49502;SDS011;35409;48.776;9.204;2022-12-18T01:05:13;117.95;;;41.42;;
49502;SDS011;35409;48.776;9.204;2022-12-18T01:07:39;113.70;;;44.08;;
49502;SDS011;35409;48.776;9.204;2022-12-18T01:10:05;122.38;;;41.88;;
49502;SDS011;35409;48.776;9.204;2022-12-18T01:14:58;104.60;;;37.85;;
49502;SDS011;35409;48.776;9.204;2022-12-18T01:17:23;115.97;;;40.95;;
49502;SDS011;35409;48.776;9.204;2022-12-18T01:19:49;122.10;;;41.13;;
49502;SDS011;35409;48.776;9.204;2022-12-18T01:22:15;117.45;;;40.70;;
49502;SDS011;35409;48.776;9.204;2022-12-18T01:24:40;102.55;;;35.95;;
49502;SDS011;35409;48.776;9.204;2022-12-18T01:27:06;108.97;;;39.08;;
49502;SDS011;35409;48.776;9.204;2022-12-18T01:29:32;102.32;;;38.28;;
49502;SDS011;35409;48.776;9.204;2022-12-18T01:31:57;100.28;;;36.28;;
49502;SDS011;35409;48.776;9.204;2022-12-18T01:34:23;104.93;;;37.80;;
49502;SDS011;35409;48.776;9.204;2022-12-18T01:36:49;103.03;;;37.42;;
49502;SDS011;35409;48.776;9.204;2022-12-18T01:39:17;95.55;;;35.38;;
49502;SDS011;35409;48.776;9.204;2022-12-18T01:41:43;97.20;;;36.00;;
49502;SDS011;35409;48.776;9.204;2022-12-18T01:47:15;95.85;;;36.67;;
49502;SDS011;35409;48.776;9.204;2022-12-18T01:49:46;91.10;;;35.10;;
49502;SDS011;35409;48.776;9.204;2022-12-18T01:52:12;98.72;;;34.40;;
49502;SDS011;35409;48.776;9.204;2022-12-18T01:54:39;83.28;;;33.17;;
49502;SDS011;35409;48.776;9.204;2022-12-18T01:57:04;84.65;;;32.75;;
49502;SDS011;35409;48.776;9.204;2022-12-18T01:59:30;83.38;;;33.28;;
49502;SDS011;35409;48.776;9.204;2022-12-18T02:01:57;84.35;;;33.20;;
49502;SDS011;35409;48.776;9.204;2022-12-18T02:04:24;96.63;;;34.92;;
49502;SDS011;35409;48.776;9.204;2022-12-18T02:06:55;89.35;;;34.40;;
49502;SDS011;35409;48.776;9.204;2022-12-18T02:09:33;94.28;;;36.85;;
49502;SDS011;35409;48.776;9.204;2022-12-18T02:12:26;83.30;;;34.20;;
49502;SDS011;35409;48.776;9.204;2022-12-18T02:15:01;96.28;;;35.78;;
49502;SDS011;35409;48.776;9.204;2022-12-18T02:17:43;89.65;;;34.65;;
49502;SDS011;35409;48.776;9.204;2022-12-18T02:20:33;85.00;;;35.15;;
49502;SDS011;35409;48.776;9.204;2022-12-18T02:28:45;93.88;;;34.13;;
49502;SDS011;35409;48.776;9.204;2022-12-18T02:31:19;92.93;;;34.47;;
49502;SDS011;35409;48.776;9.204;2022-12-18T02:33:49;103.22;;;38.22;;
49502;SDS011;35409;48.776;9.204;2022-12-18T02:36:17;88.70;;;33.28;;
49502;SDS011;35409;48.776;9.204;2022-12-18T02:38:45;101.32;;;37.40;;
49502;SDS011;35409;48.776;9.204;2022-12-18T02:41:12;87.18;;;34.28;;
49502;SDS011;35409;48.776;9.204;2022-12-18T02:43:42;84.20;;;32.40;;
49502;SDS011;35409;48.776;9.204;2022-12-18T02:46:31;85.95;;;30.88;;
49502;SDS011;35409;48.776;9.204;2022-12-18T02:49:05;86.63;;;33.63;;
49502;SDS011;35409;48.776;9.204;2022-12-18T02:51:46;86.47;;;33.42;;
49502;SDS011;35409;48.776;9.204;2022-12-18T02:54:50;81.88;;;30.67;;
49502;SDS011;35409;48.776;9.204;2022-12-18T02:57:34;83.55;;;33.33;;
49502;SDS011;35409;48.776;9.204;2022-12-18T03:00:39;87.40;;;32.83;;
49502;SDS011;35409;48.776;9.204;2022-12-18T03:03:22;91.72;;;33.03;;
49502;SDS011;35409;48.776;9.204;2022-12-18T03:05:59;92.20;;;34.33;;
49502;SDS011;35409;48.776;9.204;2022-12-18T03:08:35;87.70;;;32.83;;
49502;SDS011;35409;48.776;9.204;2022-12-18T03:11:10;97.95;;;35.22;;
49502;SDS011;35409;48.776;9.204;2022-12-18T03:16:33;102.43;;;35.42;;
49502;SDS011;35409;48.776;9.204;2022-12-18T03:19:03;91.00;;;35.20;;
49502;SDS011;35409;48.776;9.204;2022-12-18T03:21:54;83.50;;;32.30;;
49502;SDS011;35409;48.776;9.204;2022-12-18T03:24:20;90.30;;;31.73;;
49502;SDS011;35409;48.776;9.204;2022-12-18T03:26:48;93.38;;;34.45;;
49502;SDS011;35409;48.776;9.204;2022-12-18T03:29:21;88.82;;;32.05;;
49502;SDS011;35409;48.776;9.204;2022-12-18T03:31:53;92.22;;;31.98;;
49502;SDS011;35409;48.776;9.204;2022-12-18T03:34:24;94.18;;;32.55;;
49502;SDS011;35409;48.776;9.204;2022-12-18T03:36:55;80.50;;;31.83;;
49502;SDS011;35409;48.776;9.204;2022-12-18T03:39:21;91.55;;;31.75;;
49502;SDS011;35409;48.776;9.204;2022-12-18T03:41:50;75.25;;;29.38;;
49502;SDS011;35409;48.776;9.204;2022-12-18T03:50:14;78.50;;;29.02;;
49502;SDS011;35409;48.776;9.204;2022-12-18T03:52:57;72.72;;;28.15;;
49502;SDS011;35409;48.776;9.204;2022-12-18T03:55:42;75.55;;;29.88;;
49502;SDS011;35409;48.776;9.204;2022-12-18T03:58:09;71.10;;;27.45;;
49502;SDS011;35409;48.776;9.204;2022-12-18T04:00:38;68.10;;;27.40;;
49502;SDS011;35409;48.776;9.204;2022-12-18T04:03:04;70.80;;;27.30;;
49502;SDS011;35409;48.776;9.204;2022-12-18T04:05:32;72.13;;;26.65;;
49502;SDS011;35409;48.776;9.204;2022-12-18T04:07:59;66.93;;;27.85;;
49502;SDS011;35409;48.776;9.204;2022-12-18T04:10:26;65.82;;;27.27;;
49502;SDS011;35409;48.776;9.204;2022-12-18T04:12:55;75.70;;;26.13;;
49502;SDS011;35409;48.776;9.204;2022-12-18T04:15:21;68.22;;;28.50;;
49502;SDS011;35409;48.776;9.204;2022-12-18T04:17:47;61.40;;;27.75;;
49502;SDS011;35409;48.776;9.204;2022-12-18T04:20:13;67.05;;;28.08;;
49502;SDS011;35409;48.776;9.204;2022-12-18T04:22:39;70.80;;;26.48;;
49502;SDS011;35409;48.776;9.204;2022-12-18T04:25:05;72.15;;;26.98;;
49502;SDS011;35409;48.776;9.204;2022-12-18T04:27:30;69.90;;;27.50;;
49502;SDS011;35409;48.776;9.204;2022-12-18T04:29:56;64.90;;;26.63;;
49502;SDS011;35409;48.776;9.204;2022-12-18T04:32:22;62.55;;;26.63;;
49502;SDS011;35409;48.776;9.204;2022-12-18T04:34:47;62.15;;;25.85;;
49502;SDS011;35409;48.776;9.204;2022-12-18T04:37:13;62.22;;;25.35;;
49502;SDS011;35409;48.776;9.204;2022-12-18T04:39:39;74.32;;;27.83;;
49502;SDS011;35409;48.776;9.204;2022-12-18T04:42:04;66.82;;;26.85;;
49502;SDS011;35409;48.776;9.204;2022-12-18T04:44:30;69.72;;;26.70;;
49502;SDS011;35409;48.776;9.204;2022-12-18T04:46:55;74.40;;;28.35;;
49502;SDS011;35409;48.776;9.204;2022-12-18T04:49:21;69.20;;;26.55;;
49502;SDS011;35409;48.776;9.204;2022-12-18T04:51:47;65.70;;;26.75;;
49502;SDS011;35409;48.776;9.204;2022-12-18T04:54:12;67.03;;;27.38;;
49502;SDS011;35409;48.776;9.204;2022-12-18T04:56:38;67.50;;;26.58;;
49502;SDS011;35409;48.776;9.204;2022-12-18T04:59:04;62.28;;;25.02;;
49502;SDS011;35409;48.776;9.204;2022-12-18T05:01:30;64.72;;;26.13;;
49502;SDS011;35409;48.776;9.204;2022-12-18T05:03:55;67.95;;;25.33;;
49502;SDS011;35409;48.776;9.204;2022-12-18T05:06:21;64.82;;;26.48;;
49502;SDS011;35409;48.776;9.204;2022-12-18T05:08:47;65.50;;;24.88;;
49502;SDS011;35409;48.776;9.204;2022-12-18T05:11:13;67.35;;;25.95;;
49502;SDS011;35409;48.776;9.204;2022-12-18T05:13:43;66.10;;;25.52;;
49502;SDS011;35409;48.776;9.204;2022-12-18T05:16:09;67.13;;;26.83;;
49502;SDS011;35409;48.776;9.204;2022-12-18T05:18:36;67.63;;;27.13;;
49502;SDS011;35409;48.776;9.204;2022-12-18T05:21:02;69.55;;;25.88;;
49502;SDS011;35409;48.776;9.204;2022-12-18T05:23:28;62.55;;;27.17;;
49502;SDS011;35409;48.776;9.204;2022-12-18T05:25:54;62.88;;;25.90;;
49502;SDS011;35409;48.776;9.204;2022-12-18T05:28:21;62.13;;;26.17;;
49502;SDS011;35409;48.776;9.204;2022-12-18T05:30:49;66.90;;;25.23;;
49502;SDS011;35409;48.776;9.204;2022-12-18T05:33:15;67.00;;;25.30;;
49502;SDS011;35409;48.776;9.204;2022-12-18T05:35:42;68.32;;;25.33;;
49502;SDS011;35409;48.776;9.204;2022-12-18T05:38:07;71.45;;;26.92;;
49502;SDS011;35409;48.776;9.204;2022-12-18T05:40:33;62.30;;;26.08;;
49502;SDS011;35409;48.776;9.204;2022-12-18T05:42:59;60.67;;;25.33;;
49502;SDS011;35409;48.776;9.204;2022-12-18T05:45:25;72.47;;;26.60;;
49502;SDS011;35409;48.776;9.204;2022-12-18T05:47:51;74.47;;;27.77;;
49502;SDS011;35409;48.776;9.204;2022-12-18T05:50:17;65.40;;;26.55;;
49502;SDS011;35409;48.776;9.204;2022-12-18T05:52:43;67.28;;;26.42;;
49502;SDS011;35409;48.776;9.204;2022-12-18T05:55:09;63.92;;;26.23;;
49502;SDS011;35409;48.776;9.204;2022-12-18T05:57:35;76.32;;;26.58;;
49502;SDS011;35409;48.776;9.204;2022-12-18T06:00:02;72.18;;;26.83;;
49502;SDS011;35409;48.776;9.204;2022-12-18T06:02:28;70.18;;;27.75;;
49502;SDS011;35409;48.776;9.204;2022-12-18T06:04:54;65.90;;;24.55;;
49502;SDS011;35409;48.776;9.204;2022-12-18T06:07:20;65.50;;;24.45;;
49502;SDS011;35409;48.776;9.204;2022-12-18T06:09:46;64.63;;;26.52;;
49502;SDS011;35409;48.776;9.204;2022-12-18T06:12:12;65.65;;;25.85;;
49502;SDS011;35409;48.776;9.204;2022-12-18T06:14:38;64.55;;;24.50;;
49502;SDS011;35409;48.776;9.204;2022-12-18T06:17:04;62.08;;;23.92;;
49502;SDS011;35409;48.776;9.204;2022-12-18T06:19:30;69.25;;;26.30;;
49502;SDS011;35409;48.776;9.204;2022-12-18T06:21:56;69.80;;;27.70;;
49502;SDS011;35409;48.776;9.204;2022-12-18T06:24:23;63.15;;;25.33;;
49502;SDS011;35409;48.776;9.204;2022-12-18T06:26:49;64.63;;;26.55;;
49502;SDS011;35409;48.776;9.204;2022-12-18T06:29:15;60.00;;;24.85;;
49502;SDS011;35409;48.776;9.204;2022-12-18T06:31:41;64.60;;;24.90;;
49502;SDS011;35409;48.776;9.204;2022-12-18T06:34:07;64.47;;;26.90;;
49502;SDS011;35409;48.776;9.204;2022-12-18T06:36:33;69.78;;;25.08;;
49502;SDS011;35409;48.776;9.204;2022-12-18T06:38:59;63.80;;;24.05;;
49502;SDS011;35409;48.776;9.204;2022-12-18T06:41:25;69.15;;;23.42;;
49502;SDS011;35409;48.776;9.204;2022-12-18T06:43:51;64.20;;;24.65;;
49502;SDS011;35409;48.776;9.204;2022-12-18T06:46:17;61.50;;;24.08;;
49502;SDS011;35409;48.776;9.204;2022-12-18T06:48:46;56.70;;;23.77;;
49502;SDS011;35409;48.776;9.204;2022-12-18T06:51:12;71.57;;;25.90;;
49502;SDS011;35409;48.776;9.204;2022-12-18T06:53:40;56.23;;;23.23;;
49502;SDS011;35409;48.776;9.204;2022-12-18T06:56:06;50.50;;;22.05;;
49502;SDS011;35409;48.776;9.204;2022-12-18T06:58:32;60.08;;;22.95;;
49502;SDS011;35409;48.776;9.204;2022-12-18T07:00:59;68.40;;;25.02;;
49502;SDS011;35409;48.776;9.204;2022-12-18T07:03:25;64.68;;;24.20;;
49502;SDS011;35409;48.776;9.204;2022-12-18T07:05:51;58.58;;;22.05;;
49502;SDS011;35409;48.776;9.204;2022-12-18T07:08:17;57.28;;;23.40;;
49502;SDS011;35409;48.776;9.204;2022-12-18T07:10:43;63.97;;;24.10;;
49502;SDS011;35409;48.776;9.204;2022-12-18T07:13:09;57.95;;;23.92;;
49502;SDS011;35409;48.776;9.204;2022-12-18T07:15:36;59.58;;;24.17;;
49502;SDS011;35409;48.776;9.204;2022-12-18T07:18:02;56.10;;;22.85;;
49502;SDS011;35409;48.776;9.204;2022-12-18T07:20:28;62.58;;;23.48;;
49502;SDS011;35409;48.776;9.204;2022-12-18T07:22:54;62.40;;;25.10;;
49502;SDS011;35409;48.776;9.204;2022-12-18T07:25:20;57.83;;;22.90;;
49502;SDS011;35409;48.776;9.204;2022-12-18T07:27:46;56.78;;;23.50;;
49502;SDS011;35409;48.776;9.204;2022-12-18T07:30:12;63.90;;;26.58;;
49502;SDS011;35409;48.776;9.204;2022-12-18T07:32:38;64.25;;;25.85;;
49502;SDS011;35409;48.776;9.204;2022-12-18T07:35:04;60.97;;;23.50;;
49502;SDS011;35409;48.776;9.204;2022-12-18T07:37:30;58.08;;;23.65;;
49502;SDS011;35409;48.776;9.204;2022-12-18T07:39:56;55.10;;;21.98;;
49502;SDS011;35409;48.776;9.204;2022-12-18T07:42:22;59.45;;;23.83;;
49502;SDS011;35409;48.776;9.204;2022-12-18T07:44:58;57.50;;;23.38;;
49502;SDS011;35409;48.776;9.204;2022-12-18T07:47:24;69.85;;;28.98;;
49502;SDS011;35409;48.776;9.204;2022-12-18T07:49:50;63.13;;;25.77;;
49502;SDS011;35409;48.776;9.204;2022-12-18T07:52:16;66.00;;;25.23;;
49502;SDS011;35409;48.776;9.204;2022-12-18T07:54:42;61.55;;;26.77;;
49502;SDS011;35409;48.776;9.204;2022-12-18T07:57:08;66.10;;;27.25;;
49502;SDS011;35409;48.776;9.204;2022-12-18T07:59:34;64.47;;;26.65;;
49502;SDS011;35409;48.776;9.204;2022-12-18T08:02:01;73.78;;;28.17;;
49502;SDS011;35409;48.776;9.204;2022-12-18T08:04:26;62.63;;;25.00;;
49502;SDS011;35409;48.776;9.204;2022-12-18T08:06:52;69.35;;;27.23;;
49502;SDS011;35409;48.776;9.204;2022-12-18T08:09:18;63.42;;;26.15;;
49502;SDS011;35409;48.776;9.204;2022-12-18T08:11:44;62.70;;;24.20;;
49502;SDS011;35409;48.776;9.204;2022-12-18T08:14:10;57.55;;;23.88;;
49502;SDS011;35409;48.776;9.204;2022-12-18T08:16:36;59.03;;;24.38;;
49502;SDS011;35409;48.776;9.204;2022-12-18T08:19:03;63.90;;;25.05;;
49502;SDS011;35409;48.776;9.204;2022-12-18T08:21:30;76.40;;;29.88;;
49502;SDS011;35409;48.776;9.204;2022-12-18T08:23:57;62.10;;;25.75;;
49502;SDS011;35409;48.776;9.204;2022-12-18T08:26:25;72.32;;;26.27;;
49502;SDS011;35409;48.776;9.204;2022-12-18T08:28:54;70.53;;;26.85;;
49502;SDS011;35409;48.776;9.204;2022-12-18T08:31:21;70.22;;;28.67;;
49502;SDS011;35409;48.776;9.204;2022-12-18T08:33:50;68.82;;;28.15;;
49502;SDS011;35409;48.776;9.204;2022-12-18T08:36:17;61.80;;;25.05;;
49502;SDS011;35409;48.776;9.204;2022-12-18T08:38:44;58.03;;;25.02;;
49502;SDS011;35409;48.776;9.204;2022-12-18T08:41:10;62.33;;;26.02;;
49502;SDS011;35409;48.776;9.204;2022-12-18T08:43:37;60.10;;;24.25;;
49502;SDS011;35409;48.776;9.204;2022-12-18T08:46:22;62.97;;;25.33;;
49502;SDS011;35409;48.776;9.204;2022-12-18T08:48:52;58.13;;;23.33;;
49502;SDS011;35409;48.776;9.204;2022-12-18T08:51:18;64.50;;;24.33;;
49502;SDS011;35409;48.776;9.204;2022-12-18T08:53:44;59.85;;;26.33;;
49502;SDS011;35409;48.776;9.204;2022-12-18T08:56:11;66.13;;;26.33;;
49502;SDS011;35409;48.776;9.204;2022-12-18T08:58:37;66.80;;;26.17;;
49502;SDS011;35409;48.776;9.204;2022-12-18T09:01:04;58.63;;;24.75;;
49502;SDS011;35409;48.776;9.204;2022-12-18T09:03:36;65.65;;;27.63;;
49502;SDS011;35409;48.776;9.204;2022-12-18T09:06:02;59.08;;;24.02;;
49502;SDS011;35409;48.776;9.204;2022-12-18T09:08:29;68.95;;;25.63;;
49502;SDS011;35409;48.776;9.204;2022-12-18T09:10:55;62.47;;;25.73;;
49502;SDS011;35409;48.776;9.204;2022-12-18T09:13:21;62.17;;;26.50;;
49502;SDS011;35409;48.776;9.204;2022-12-18T09:15:48;71.32;;;27.52;;
49502;SDS011;35409;48.776;9.204;2022-12-18T09:18:16;65.03;;;27.00;;
49502;SDS011;35409;48.776;9.204;2022-12-18T09:20:43;65.20;;;26.42;;
49502;SDS011;35409;48.776;9.204;2022-12-18T09:23:10;63.00;;;27.40;;
49502;SDS011;35409;48.776;9.204;2022-12-18T09:25:36;60.20;;;25.65;;
49502;SDS011;35409;48.776;9.204;2022-12-18T09:28:03;63.47;;;26.35;;
49502;SDS011;35409;48.776;9.204;2022-12-18T09:30:39;57.80;;;25.48;;
49502;SDS011;35409;48.776;9.204;2022-12-18T09:33:06;68.35;;;27.92;;
49502;SDS011;35409;48.776;9.204;2022-12-18T09:35:32;60.65;;;26.25;;
49502;SDS011;35409;48.776;9.204;2022-12-18T09:37:57;64.13;;;27.35;;
49502;SDS011;35409;48.776;9.204;2022-12-18T09:40:24;59.45;;;26.38;;
49502;SDS011;35409;48.776;9.204;2022-12-18T09:42:55;64.95;;;27.98;;
49502;SDS011;35409;48.776;9.204;2022-12-18T09:45:27;70.85;;;28.13;;
49502;SDS011;35409;48.776;9.204;2022-12-18T09:47:55;59.42;;;26.52;;
49502;SDS011;35409;48.776;9.204;2022-12-18T09:50:24;70.40;;;28.45;;
49502;SDS011;35409;48.776;9.204;2022-12-18T09:53:05;65.88;;;28.13;;
49502;SDS011;35409;48.776;9.204;2022-12-18T09:55:36;63.15;;;28.17;;
49502;SDS011;35409;48.776;9.204;2022-12-18T09:58:06;74.22;;;27.40;;
49502;SDS011;35409;48.776;9.204;2022-12-18T10:00:38;71.18;;;29.70;;
49502;SDS011;35409;48.776;9.204;2022-12-18T10:03:11;68.38;;;30.17;;
49502;SDS011;35409;48.776;9.204;2022-12-18T10:11:19;70.93;;;29.80;;
49502;SDS011;35409;48.776;9.204;2022-12-18T10:13:52;76.65;;;30.95;;
49502;SDS011;35409;48.776;9.204;2022-12-18T10:18:58;71.45;;;28.92;;
49502;SDS011;35409;48.776;9.204;2022-12-18T10:24:32;66.57;;;29.52;;
49502;SDS011;35409;48.776;9.204;2022-12-18T10:27:08;66.43;;;27.33;;
49502;SDS011;35409;48.776;9.204;2022-12-18T10:29:47;73.05;;;29.55;;
49502;SDS011;35409;48.776;9.204;2022-12-18T10:32:14;72.03;;;30.02;;
49502;SDS011;35409;48.776;9.204;2022-12-18T10:34:50;72.45;;;32.25;;
49502;SDS011;35409;48.776;9.204;2022-12-18T10:37:22;75.43;;;32.50;;
49502;SDS011;35409;48.776;9.204;2022-12-18T10:42:41;63.40;;;29.13;;
49502;SDS011;35409;48.776;9.204;2022-12-18T10:45:16;67.70;;;28.23;;
49502;SDS011;35409;48.776;9.204;2022-12-18T10:47:51;64.80;;;28.25;;
49502;SDS011;35409;48.776;9.204;2022-12-18T10:53:03;75.45;;;32.88;;
49502;SDS011;35409;48.776;9.204;2022-12-18T10:55:31;68.15;;;30.35;;
49502;SDS011;35409;48.776;9.204;2022-12-18T10:58:13;69.25;;;29.13;;
49502;SDS011;35409;48.776;9.204;2022-12-18T11:03:39;67.43;;;28.85;;
49502;SDS011;35409;48.776;9.204;2022-12-18T11:06:08;62.53;;;28.95;;
49502;SDS011;35409;48.776;9.204;2022-12-18T11:08:38;67.88;;;30.60;;
49502;SDS011;35409;48.776;9.204;2022-12-18T11:11:15;61.95;;;28.40;;
49502;SDS011;35409;48.776;9.204;2022-12-18T11:13:59;62.47;;;28.40;;
49502;SDS011;35409;48.776;9.204;2022-12-18T11:16:29;64.53;;;27.08;;
49502;SDS011;35409;48.776;9.204;2022-12-18T11:21:56;51.03;;;22.17;;
49502;SDS011;35409;48.776;9.204;2022-12-18T11:24:30;58.25;;;22.95;;
49502;SDS011;35409;48.776;9.204;2022-12-18T11:26:57;58.97;;;24.95;;
49502;SDS011;35409;48.776;9.204;2022-12-18T11:35:32;48.90;;;21.70;;
49502;SDS011;35409;48.776;9.204;2022-12-18T11:37:56;52.35;;;21.65;;
49502;SDS011;35409;48.776;9.204;2022-12-18T11:40:35;49.72;;;21.98;;
49502;SDS011;35409;48.776;9.204;2022-12-18T11:43:20;47.30;;;21.23;;
49502;SDS011;35409;48.776;9.204;2022-12-18T11:46:25;47.05;;;21.40;;
49502;SDS011;35409;48.776;9.204;2022-12-18T11:51:32;47.50;;;21.38;;
49502;SDS011;35409;48.776;9.204;2022-12-18T11:54:07;50.80;;;21.17;;
49502;SDS011;35409;48.776;9.204;2022-12-18T11:56:43;49.45;;;21.58;;
49502;SDS011;35409;48.776;9.204;2022-12-18T12:02:29;42.60;;;20.33;;
49502;SDS011;35409;48.776;9.204;2022-12-18T12:07:47;47.30;;;22.33;;
49502;SDS011;35409;48.776;9.204;2022-12-18T12:10:28;53.28;;;23.17;;
49502;SDS011;35409;48.776;9.204;2022-12-18T12:13:08;50.40;;;21.65;;
49502;SDS011;35409;48.776;9.204;2022-12-18T12:23:40;47.80;;;22.17;;
49502;SDS011;35409;48.776;9.204;2022-12-18T12:26:11;48.88;;;21.88;;
49502;SDS011;35409;48.776;9.204;2022-12-18T12:33:59;43.65;;;21.40;;
49502;SDS011;35409;48.776;9.204;2022-12-18T12:39:11;55.45;;;22.10;;
49502;SDS011;35409;48.776;9.204;2022-12-18T12:41:39;50.22;;;22.70;;
49502;SDS011;35409;48.776;9.204;2022-12-18T12:44:27;52.92;;;23.83;;
49502;SDS011;35409;48.776;9.204;2022-12-18T12:46:56;47.90;;;22.00;;
49502;SDS011;35409;48.776;9.204;2022-12-18T12:49:26;52.65;;;23.08;;
49502;SDS011;35409;48.776;9.204;2022-12-18T12:52:00;49.20;;;23.20;;
49502;SDS011;35409;48.776;9.204;2022-12-18T12:54:37;49.05;;;23.60;;
49502;SDS011;35409;48.776;9.204;2022-12-18T12:57:15;54.72;;;23.83;;
49502;SDS011;35409;48.776;9.204;2022-12-18T12:59:57;51.50;;;23.83;;
49502;SDS011;35409;48.776;9.204;2022-12-18T13:02:34;50.30;;;22.35;;
49502;SDS011;35409;48.776;9.204;2022-12-18T13:07:52;46.95;;;22.42;;
49502;SDS011;35409;48.776;9.204;2022-12-18T13:12:55;54.38;;;24.30;;
49502;SDS011;35409;48.776;9.204;2022-12-18T13:26:27;48.70;;;21.65;;
49502;SDS011;35409;48.776;9.204;2022-12-18T13:34:24;59.58;;;26.85;;
49502;SDS011;35409;48.776;9.204;2022-12-18T13:36:51;57.15;;;25.73;;
49502;SDS011;35409;48.776;9.204;2022-12-18T13:41:54;61.30;;;26.95;;
49502;SDS011;35409;48.776;9.204;2022-12-18T13:44:55;65.53;;;28.05;;
49502;SDS011;35409;48.776;9.204;2022-12-18T13:47:54;58.28;;;27.08;;
49502;SDS011;35409;48.776;9.204;2022-12-18T13:50:23;63.35;;;27.13;;
49502;SDS011;35409;48.776;9.204;2022-12-18T13:52:49;67.75;;;26.92;;
49502;SDS011;35409;48.776;9.204;2022-12-18T13:55:16;69.35;;;29.02;;
49502;SDS011;35409;48.776;9.204;2022-12-18T13:57:44;66.05;;;28.65;;
49502;SDS011;35409;48.776;9.204;2022-12-18T14:00:43;55.97;;;25.35;;
49502;SDS011;35409;48.776;9.204;2022-12-18T14:03:15;63.80;;;28.42;;
49502;SDS011;35409;48.776;9.204;2022-12-18T14:05:55;54.47;;;24.67;;
49502;SDS011;35409;48.776;9.204;2022-12-18T14:08:24;59.50;;;25.77;;
49502;SDS011;35409;48.776;9.204;2022-12-18T14:10:57;58.28;;;25.70;;
49502;SDS011;35409;48.776;9.204;2022-12-18T14:13:24;55.45;;;26.25;;
49502;SDS011;35409;48.776;9.204;2022-12-18T14:15:54;58.45;;;25.35;;
49502;SDS011;35409;48.776;9.204;2022-12-18T14:20:50;55.25;;;25.50;;
49502;SDS011;35409;48.776;9.204;2022-12-18T14:23:27;58.22;;;27.33;;
49502;SDS011;35409;48.776;9.204;2022-12-18T14:26:23;61.22;;;26.13;;
49502;SDS011;35409;48.776;9.204;2022-12-18T14:28:57;58.95;;;27.02;;
49502;SDS011;35409;48.776;9.204;2022-12-18T14:31:26;62.78;;;28.02;;
49502;SDS011;35409;48.776;9.204;2022-12-18T14:33:54;59.53;;;26.98;;
49502;SDS011;35409;48.776;9.204;2022-12-18T14:36:21;63.35;;;27.67;;
49502;SDS011;35409;48.776;9.204;2022-12-18T14:39:00;65.10;;;28.50;;
49502;SDS011;35409;48.776;9.204;2022-12-18T14:41:26;62.90;;;27.85;;
49502;SDS011;35409;48.776;9.204;2022-12-18T14:43:53;60.33;;;28.85;;
49502;SDS011;35409;48.776;9.204;2022-12-18T14:46:26;61.80;;;26.52;;
49502;SDS011;35409;48.776;9.204;2022-12-18T14:48:56;65.57;;;27.88;;
49502;SDS011;35409;48.776;9.204;2022-12-18T14:51:23;65.05;;;28.60;;
49502;SDS011;35409;48.776;9.204;2022-12-18T14:53:56;64.70;;;27.65;;
49502;SDS011;35409;48.776;9.204;2022-12-18T14:56:24;66.13;;;28.60;;
49502;SDS011;35409;48.776;9.204;2022-12-18T15:01:21;67.82;;;26.48;;
49502;SDS011;35409;48.776;9.204;2022-12-18T15:03:51;67.95;;;27.60;;
49502;SDS011;35409;48.776;9.204;2022-12-18T15:06:21;71.47;;;28.92;;
49502;SDS011;35409;48.776;9.204;2022-12-18T15:08:51;70.38;;;28.35;;
49502;SDS011;35409;48.776;9.204;2022-12-18T15:11:54;69.03;;;28.50;;
49502;SDS011;35409;48.776;9.204;2022-12-18T15:16:55;70.75;;;29.48;;
49502;SDS011;35409;48.776;9.204;2022-12-18T15:19:31;71.45;;;30.63;;
49502;SDS011;35409;48.776;9.204;2022-12-18T15:21:58;69.50;;;29.95;;
49502;SDS011;35409;48.776;9.204;2022-12-18T15:24:26;68.28;;;28.38;;
49502;SDS011;35409;48.776;9.204;2022-12-18T15:26:55;69.38;;;28.83;;
49502;SDS011;35409;48.776;9.204;2022-12-18T15:29:21;68.78;;;29.13;;
49502;SDS011;35409;48.776;9.204;2022-12-18T15:32:00;78.50;;;30.25;;
49502;SDS011;35409;48.776;9.204;2022-12-18T15:34:28;77.10;;;31.80;;
49502;SDS011;35409;48.776;9.204;2022-12-18T15:36:54;85.28;;;33.13;;
49502;SDS011;35409;48.776;9.204;2022-12-18T15:39:20;75.25;;;30.95;;
49502;SDS011;35409;48.776;9.204;2022-12-18T15:41:46;74.13;;;31.23;;
49502;SDS011;35409;48.776;9.204;2022-12-18T15:44:31;73.25;;;30.02;;
49502;SDS011;35409;48.776;9.204;2022-12-18T15:46:57;79.88;;;30.85;;
49502;SDS011;35409;48.776;9.204;2022-12-18T15:49:23;79.20;;;32.00;;
49502;SDS011;35409;48.776;9.204;2022-12-18T15:51:53;81.28;;;31.50;;
49502;SDS011;35409;48.776;9.204;2022-12-18T15:54:23;79.60;;;31.90;;
49502;SDS011;35409;48.776;9.204;2022-12-18T15:57:09;75.43;;;30.13;;
49502;SDS011;35409;48.776;9.204;2022-12-18T15:59:54;81.63;;;33.08;;
49502;SDS011;35409;48.776;9.204;2022-12-18T16:02:22;80.95;;;33.70;;
49502;SDS011;35409;48.776;9.204;2022-12-18T16:04:49;73.38;;;32.10;;
49502;SDS011;35409;48.776;9.204;2022-12-18T16:07:16;86.72;;;34.17;;
49502;SDS011;35409;48.776;9.204;2022-12-18T16:09:41;78.20;;;32.00;;
49502;SDS011;35409;48.776;9.204;2022-12-18T16:12:13;84.70;;;33.80;;
49502;SDS011;35409;48.776;9.204;2022-12-18T16:14:44;84.15;;;32.70;;
49502;SDS011;35409;48.776;9.204;2022-12-18T16:17:11;85.93;;;32.92;;
49502;SDS011;35409;48.776;9.204;2022-12-18T16:19:37;88.43;;;35.42;;
49502;SDS011;35409;48.776;9.204;2022-12-18T16:22:03;85.15;;;33.38;;